sensor_id;sensor_type;location;lat;lon;timestamp;P1;durP1;ratioP1;P2;durP2;ratioP2
12776;SDS011;6452;41.572;23.732;2022-07-04T00:01:26;9.10;;;7.30;;
12776;SDS011;6452;41.572;23.732;2022-07-04T00:03:53;7.32;;;6.82;;
12776;SDS011;6452;41.572;23.732;2022-07-04T00:06:20;8.10;;;7.07;;
12776;SDS011;6452;41.572;23.732;2022-07-04T00:08:46;7.30;;;6.65;;
12776;SDS011;6452;41.572;23.732;2022-07-04T00:11:13;7.70;;;6.97;;
12776;SDS011;6452;41.572;23.732;2022-07-04T00:13:40;9.73;;;8.70;;
12776;SDS011;6452;41.572;23.732;2022-07-04T00:16:06;9.10;;;8.40;;
12776;SDS011;6452;41.572;23.732;2022-07-04T00:18:32;8.15;;;7.35;;
12776;SDS011;6452;41.572;23.732;2022-07-04T00:20:59;10.00;;;8.10;;
12776;SDS011;6452;41.572;23.732;2022-07-04T00:23:30;8.40;;;7.70;;
12776;SDS011;6452;41.572;23.732;2022-07-04T00:25:56;7.82;;;7.13;;
12776;SDS011;6452;41.572;23.732;2022-07-04T00:28:23;8.32;;;7.47;;
12776;SDS011;6452;41.572;23.732;2022-07-04T00:30:50;8.70;;;7.88;;
12776;SDS011;6452;41.572;23.732;2022-07-04T00:33:16;8.23;;;7.53;;
12776;SDS011;6452;41.572;23.732;2022-07-04T00:35:43;9.65;;;7.85;;
12776;SDS011;6452;41.572;23.732;2022-07-04T00:38:09;8.48;;;7.68;;
12776;SDS011;6452;41.572;23.732;2022-07-04T00:40:35;8.68;;;7.88;;
12776;SDS011;6452;41.572;23.732;2022-07-04T00:43:02;7.88;;;7.38;;
12776;SDS011;6452;41.572;23.732;2022-07-04T00:45:30;7.43;;;6.93;;
12776;SDS011;6452;41.572;23.732;2022-07-04T00:47:56;7.97;;;7.20;;
12776;SDS011;6452;41.572;23.732;2022-07-04T00:50:23;8.70;;;7.47;;
12776;SDS011;6452;41.572;23.732;2022-07-04T00:52:51;8.35;;;7.55;;
12776;SDS011;6452;41.572;23.732;2022-07-04T00:55:17;8.18;;;7.57;;
12776;SDS011;6452;41.572;23.732;2022-07-04T00:57:45;8.07;;;7.45;;
12776;SDS011;6452;41.572;23.732;2022-07-04T01:00:12;8.18;;;7.50;;
12776;SDS011;6452;41.572;23.732;2022-07-04T01:02:40;8.00;;;7.30;;
12776;SDS011;6452;41.572;23.732;2022-07-04T01:05:10;8.32;;;7.57;;
12776;SDS011;6452;41.572;23.732;2022-07-04T01:07:36;8.98;;;8.18;;
12776;SDS011;6452;41.572;23.732;2022-07-04T01:10:03;9.65;;;8.82;;
12776;SDS011;6452;41.572;23.732;2022-07-04T01:12:29;10.88;;;9.88;;
12776;SDS011;6452;41.572;23.732;2022-07-04T01:14:56;14.23;;;10.70;;
12776;SDS011;6452;41.572;23.732;2022-07-04T01:17:23;12.43;;;10.98;;
12776;SDS011;6452;41.572;23.732;2022-07-04T01:19:49;10.40;;;9.50;;
12776;SDS011;6452;41.572;23.732;2022-07-04T01:22:16;11.20;;;9.05;;
12776;SDS011;6452;41.572;23.732;2022-07-04T01:24:44;9.40;;;8.50;;
12776;SDS011;6452;41.572;23.732;2022-07-04T01:27:11;9.02;;;8.32;;
12776;SDS011;6452;41.572;23.732;2022-07-04T01:29:38;12.98;;;10.30;;
12776;SDS011;6452;41.572;23.732;2022-07-04T01:32:05;9.63;;;8.82;;
12776;SDS011;6452;41.572;23.732;2022-07-04T01:34:32;9.35;;;8.55;;
12776;SDS011;6452;41.572;23.732;2022-07-04T01:36:59;10.07;;;9.07;;
12776;SDS011;6452;41.572;23.732;2022-07-04T01:39:26;9.63;;;8.73;;
12776;SDS011;6452;41.572;23.732;2022-07-04T01:41:54;9.25;;;8.35;;
12776;SDS011;6452;41.572;23.732;2022-07-04T01:44:20;10.52;;;8.45;;
12776;SDS011;6452;41.572;23.732;2022-07-04T01:46:47;9.10;;;8.40;;
12776;SDS011;6452;41.572;23.732;2022-07-04T01:49:14;9.20;;;8.30;;
12776;SDS011;6452;41.572;23.732;2022-07-04T01:51:47;10.93;;;8.70;;
12776;SDS011;6452;41.572;23.732;2022-07-04T01:54:14;10.00;;;8.45;;
12776;SDS011;6452;41.572;23.732;2022-07-04T01:56:41;9.20;;;8.40;;
12776;SDS011;6452;41.572;23.732;2022-07-04T01:59:07;9.35;;;8.48;;
12776;SDS011;6452;41.572;23.732;2022-07-04T02:01:34;9.07;;;8.27;;
12776;SDS011;6452;41.572;23.732;2022-07-04T02:04:03;9.85;;;8.15;;
12776;SDS011;6452;41.572;23.732;2022-07-04T02:06:32;9.07;;;8.20;;
12776;SDS011;6452;41.572;23.732;2022-07-04T02:08:59;9.70;;;8.80;;
12776;SDS011;6452;41.572;23.732;2022-07-04T02:11:41;10.52;;;8.20;;
12776;SDS011;6452;41.572;23.732;2022-07-04T02:14:26;8.50;;;7.68;;
12776;SDS011;6452;41.572;23.732;2022-07-04T02:16:52;8.90;;;7.82;;
12776;SDS011;6452;41.572;23.732;2022-07-04T02:19:18;8.30;;;7.50;;
12776;SDS011;6452;41.572;23.732;2022-07-04T02:21:45;9.93;;;7.35;;
12776;SDS011;6452;41.572;23.732;2022-07-04T02:24:11;8.43;;;7.63;;
12776;SDS011;6452;41.572;23.732;2022-07-04T02:26:38;8.63;;;7.93;;
12776;SDS011;6452;41.572;23.732;2022-07-04T02:29:04;13.48;;;7.32;;
12776;SDS011;6452;41.572;23.732;2022-07-04T02:31:31;7.68;;;7.07;;
12776;SDS011;6452;41.572;23.732;2022-07-04T02:33:57;7.65;;;7.15;;
12776;SDS011;6452;41.572;23.732;2022-07-04T02:36:24;8.27;;;7.47;;
12776;SDS011;6452;41.572;23.732;2022-07-04T02:38:51;7.88;;;7.13;;
12776;SDS011;6452;41.572;23.732;2022-07-04T02:41:18;7.45;;;6.70;;
12776;SDS011;6452;41.572;23.732;2022-07-04T02:43:45;7.82;;;7.10;;
12776;SDS011;6452;41.572;23.732;2022-07-04T02:46:11;8.25;;;7.65;;
12776;SDS011;6452;41.572;23.732;2022-07-04T02:48:42;7.93;;;7.30;;
12776;SDS011;6452;41.572;23.732;2022-07-04T02:51:08;7.70;;;6.95;;
12776;SDS011;6452;41.572;23.732;2022-07-04T02:53:35;7.38;;;6.88;;
12776;SDS011;6452;41.572;23.732;2022-07-04T02:56:02;7.63;;;6.88;;
12776;SDS011;6452;41.572;23.732;2022-07-04T02:58:30;8.82;;;7.15;;
12776;SDS011;6452;41.572;23.732;2022-07-04T03:00:57;7.68;;;7.10;;
12776;SDS011;6452;41.572;23.732;2022-07-04T03:03:24;7.80;;;7.10;;
12776;SDS011;6452;41.572;23.732;2022-07-04T03:05:51;7.75;;;7.20;;
12776;SDS011;6452;41.572;23.732;2022-07-04T03:08:18;9.35;;;7.13;;
12776;SDS011;6452;41.572;23.732;2022-07-04T03:10:44;8.57;;;7.35;;
12776;SDS011;6452;41.572;23.732;2022-07-04T03:13:09;7.95;;;7.35;;
12776;SDS011;6452;41.572;23.732;2022-07-04T03:15:36;9.60;;;8.75;;
12776;SDS011;6452;41.572;23.732;2022-07-04T03:18:02;8.57;;;7.82;;
12776;SDS011;6452;41.572;23.732;2022-07-04T03:20:29;8.45;;;7.75;;
12776;SDS011;6452;41.572;23.732;2022-07-04T03:22:56;7.97;;;7.18;;
12776;SDS011;6452;41.572;23.732;2022-07-04T03:25:21;7.35;;;6.82;;
12776;SDS011;6452;41.572;23.732;2022-07-04T03:27:49;7.80;;;7.18;;
12776;SDS011;6452;41.572;23.732;2022-07-04T03:30:16;9.18;;;7.57;;
12776;SDS011;6452;41.572;23.732;2022-07-04T03:32:42;7.77;;;7.10;;
12776;SDS011;6452;41.572;23.732;2022-07-04T03:35:09;7.10;;;6.50;;
12776;SDS011;6452;41.572;23.732;2022-07-04T03:37:36;7.57;;;6.97;;
12776;SDS011;6452;41.572;23.732;2022-07-04T03:40:03;7.28;;;6.68;;
12776;SDS011;6452;41.572;23.732;2022-07-04T03:42:31;7.88;;;6.97;;
12776;SDS011;6452;41.572;23.732;2022-07-04T03:44:58;8.95;;;8.20;;
12776;SDS011;6452;41.572;23.732;2022-07-04T03:47:23;10.05;;;9.02;;
12776;SDS011;6452;41.572;23.732;2022-07-04T03:49:50;10.65;;;9.52;;
12776;SDS011;6452;41.572;23.732;2022-07-04T03:52:17;10.50;;;9.50;;
12776;SDS011;6452;41.572;23.732;2022-07-04T03:54:43;10.18;;;9.18;;
12776;SDS011;6452;41.572;23.732;2022-07-04T03:57:13;10.25;;;9.32;;
12776;SDS011;6452;41.572;23.732;2022-07-04T03:59:43;10.63;;;9.53;;
12776;SDS011;6452;41.572;23.732;2022-07-04T04:02:09;10.45;;;9.35;;
12776;SDS011;6452;41.572;23.732;2022-07-04T04:04:36;10.05;;;9.05;;
12776;SDS011;6452;41.572;23.732;2022-07-04T04:07:20;10.35;;;9.32;;
12776;SDS011;6452;41.572;23.732;2022-07-04T04:09:47;10.55;;;9.45;;
12776;SDS011;6452;41.572;23.732;2022-07-04T04:12:13;10.75;;;9.55;;
12776;SDS011;6452;41.572;23.732;2022-07-04T04:14:40;9.93;;;8.95;;
12776;SDS011;6452;41.572;23.732;2022-07-04T04:17:07;10.57;;;9.53;;
12776;SDS011;6452;41.572;23.732;2022-07-04T04:19:33;10.07;;;9.15;;
12776;SDS011;6452;41.572;23.732;2022-07-04T04:22:00;10.57;;;9.57;;
12776;SDS011;6452;41.572;23.732;2022-07-04T04:24:27;11.02;;;9.93;;
12776;SDS011;6452;41.572;23.732;2022-07-04T04:26:53;10.43;;;9.55;;
12776;SDS011;6452;41.572;23.732;2022-07-04T04:29:20;11.00;;;9.82;;
12776;SDS011;6452;41.572;23.732;2022-07-04T04:31:47;11.45;;;10.13;;
12776;SDS011;6452;41.572;23.732;2022-07-04T04:34:13;11.48;;;9.88;;
12776;SDS011;6452;41.572;23.732;2022-07-04T04:36:40;11.32;;;10.05;;
12776;SDS011;6452;41.572;23.732;2022-07-04T04:39:06;10.75;;;9.85;;
12776;SDS011;6452;41.572;23.732;2022-07-04T04:41:35;11.93;;;10.82;;
12776;SDS011;6452;41.572;23.732;2022-07-04T04:44:01;11.00;;;10.20;;
12776;SDS011;6452;41.572;23.732;2022-07-04T04:46:30;11.13;;;10.18;;
12776;SDS011;6452;41.572;23.732;2022-07-04T04:48:57;12.80;;;10.30;;
12776;SDS011;6452;41.572;23.732;2022-07-04T04:51:23;11.20;;;9.93;;
12776;SDS011;6452;41.572;23.732;2022-07-04T04:53:50;12.02;;;10.80;;
12776;SDS011;6452;41.572;23.732;2022-07-04T04:56:17;11.32;;;10.20;;
12776;SDS011;6452;41.572;23.732;2022-07-04T04:58:43;11.23;;;10.02;;
12776;SDS011;6452;41.572;23.732;2022-07-04T05:01:10;12.02;;;10.40;;
12776;SDS011;6452;41.572;23.732;2022-07-04T05:03:36;11.35;;;10.27;;
12776;SDS011;6452;41.572;23.732;2022-07-04T05:06:02;13.60;;;10.88;;
12776;SDS011;6452;41.572;23.732;2022-07-04T05:08:29;11.05;;;10.10;;
12776;SDS011;6452;41.572;23.732;2022-07-04T05:10:56;11.38;;;9.20;;
12776;SDS011;6452;41.572;23.732;2022-07-04T05:13:23;10.82;;;9.38;;
12776;SDS011;6452;41.572;23.732;2022-07-04T05:15:53;10.43;;;9.43;;
12776;SDS011;6452;41.572;23.732;2022-07-04T05:18:20;11.65;;;8.95;;
12776;SDS011;6452;41.572;23.732;2022-07-04T05:20:47;9.82;;;8.80;;
12776;SDS011;6452;41.572;23.732;2022-07-04T05:23:13;8.45;;;7.53;;
12776;SDS011;6452;41.572;23.732;2022-07-04T05:25:40;9.20;;;8.48;;
12776;SDS011;6452;41.572;23.732;2022-07-04T05:28:06;8.20;;;7.50;;
12776;SDS011;6452;41.572;23.732;2022-07-04T05:30:33;8.48;;;7.63;;
12776;SDS011;6452;41.572;23.732;2022-07-04T05:33:00;10.90;;;8.02;;
12776;SDS011;6452;41.572;23.732;2022-07-04T05:35:27;8.50;;;7.78;;
12776;SDS011;6452;41.572;23.732;2022-07-04T05:37:53;10.93;;;8.07;;
12776;SDS011;6452;41.572;23.732;2022-07-04T05:40:20;11.13;;;8.23;;
12776;SDS011;6452;41.572;23.732;2022-07-04T05:42:49;14.30;;;8.00;;
12776;SDS011;6452;41.572;23.732;2022-07-04T05:45:16;10.07;;;8.38;;
12776;SDS011;6452;41.572;23.732;2022-07-04T05:47:42;14.82;;;7.97;;
12776;SDS011;6452;41.572;23.732;2022-07-04T05:50:10;10.52;;;8.40;;
12776;SDS011;6452;41.572;23.732;2022-07-04T05:52:36;10.90;;;9.05;;
12776;SDS011;6452;41.572;23.732;2022-07-04T05:55:02;9.18;;;8.23;;
12776;SDS011;6452;41.572;23.732;2022-07-04T05:57:29;10.50;;;8.02;;
12776;SDS011;6452;41.572;23.732;2022-07-04T05:59:55;11.50;;;8.45;;
12776;SDS011;6452;41.572;23.732;2022-07-04T06:02:22;9.95;;;8.02;;
12776;SDS011;6452;41.572;23.732;2022-07-04T06:04:49;9.82;;;8.88;;
12776;SDS011;6452;41.572;23.732;2022-07-04T06:07:15;14.07;;;8.40;;
12776;SDS011;6452;41.572;23.732;2022-07-04T06:09:42;11.00;;;8.55;;
12776;SDS011;6452;41.572;23.732;2022-07-04T06:12:09;13.13;;;8.05;;
12776;SDS011;6452;41.572;23.732;2022-07-04T06:14:36;12.82;;;8.23;;
12776;SDS011;6452;41.572;23.732;2022-07-04T06:17:03;8.75;;;7.82;;
12776;SDS011;6452;41.572;23.732;2022-07-04T06:19:30;7.97;;;7.45;;
12776;SDS011;6452;41.572;23.732;2022-07-04T06:21:57;9.07;;;8.30;;
12776;SDS011;6452;41.572;23.732;2022-07-04T06:24:24;8.48;;;7.63;;
12776;SDS011;6452;41.572;23.732;2022-07-04T06:26:51;9.82;;;7.78;;
12776;SDS011;6452;41.572;23.732;2022-07-04T06:29:17;10.13;;;8.07;;
12776;SDS011;6452;41.572;23.732;2022-07-04T06:31:44;8.57;;;7.50;;
12776;SDS011;6452;41.572;23.732;2022-07-04T06:34:15;8.73;;;8.00;;
12776;SDS011;6452;41.572;23.732;2022-07-04T06:36:59;12.90;;;7.70;;
12776;SDS011;6452;41.572;23.732;2022-07-04T06:39:25;9.93;;;7.82;;
12776;SDS011;6452;41.572;23.732;2022-07-04T06:41:52;8.80;;;7.97;;
12776;SDS011;6452;41.572;23.732;2022-07-04T06:44:18;9.60;;;8.57;;
12776;SDS011;6452;41.572;23.732;2022-07-04T06:46:45;9.23;;;8.32;;
12776;SDS011;6452;41.572;23.732;2022-07-04T06:49:11;8.35;;;7.70;;
12776;SDS011;6452;41.572;23.732;2022-07-04T06:51:38;8.23;;;7.63;;
12776;SDS011;6452;41.572;23.732;2022-07-04T06:54:05;8.48;;;7.55;;
12776;SDS011;6452;41.572;23.732;2022-07-04T06:56:31;9.75;;;7.45;;
12776;SDS011;6452;41.572;23.732;2022-07-04T06:58:58;10.68;;;7.10;;
12776;SDS011;6452;41.572;23.732;2022-07-04T07:01:24;9.65;;;7.78;;
12776;SDS011;6452;41.572;23.732;2022-07-04T07:03:51;10.52;;;8.20;;
12776;SDS011;6452;41.572;23.732;2022-07-04T07:06:18;10.48;;;7.47;;
12776;SDS011;6452;41.572;23.732;2022-07-04T07:08:44;8.05;;;7.35;;
12776;SDS011;6452;41.572;23.732;2022-07-04T07:11:11;10.57;;;8.55;;
12776;SDS011;6452;41.572;23.732;2022-07-04T07:13:43;7.88;;;7.15;;
12776;SDS011;6452;41.572;23.732;2022-07-04T07:16:12;11.25;;;7.03;;
12776;SDS011;6452;41.572;23.732;2022-07-04T07:18:39;9.70;;;7.10;;
12776;SDS011;6452;41.572;23.732;2022-07-04T07:21:05;8.15;;;7.35;;
12776;SDS011;6452;41.572;23.732;2022-07-04T07:23:31;8.27;;;7.45;;
12776;SDS011;6452;41.572;23.732;2022-07-04T07:25:58;8.77;;;8.07;;
12776;SDS011;6452;41.572;23.732;2022-07-04T07:28:24;12.13;;;8.15;;
12776;SDS011;6452;41.572;23.732;2022-07-04T07:30:55;9.15;;;7.82;;
12776;SDS011;6452;41.572;23.732;2022-07-04T07:33:22;8.05;;;7.45;;
12776;SDS011;6452;41.572;23.732;2022-07-04T07:35:48;8.07;;;7.47;;
12776;SDS011;6452;41.572;23.732;2022-07-04T07:38:14;7.40;;;6.75;;
12776;SDS011;6452;41.572;23.732;2022-07-04T07:40:41;8.30;;;7.50;;
12776;SDS011;6452;41.572;23.732;2022-07-04T07:43:07;7.75;;;7.15;;
12776;SDS011;6452;41.572;23.732;2022-07-04T07:45:34;8.07;;;7.30;;
12776;SDS011;6452;41.572;23.732;2022-07-04T07:48:01;8.65;;;7.72;;
12776;SDS011;6452;41.572;23.732;2022-07-04T07:50:28;7.63;;;6.93;;
12776;SDS011;6452;41.572;23.732;2022-07-04T07:52:55;9.55;;;6.57;;
12776;SDS011;6452;41.572;23.732;2022-07-04T07:55:34;10.50;;;7.22;;
12776;SDS011;6452;41.572;23.732;2022-07-04T07:58:01;10.20;;;6.13;;
12776;SDS011;6452;41.572;23.732;2022-07-04T08:00:27;7.57;;;6.88;;
12776;SDS011;6452;41.572;23.732;2022-07-04T08:02:57;9.73;;;6.68;;
12776;SDS011;6452;41.572;23.732;2022-07-04T08:05:41;7.25;;;6.50;;
12776;SDS011;6452;41.572;23.732;2022-07-04T08:08:07;6.47;;;5.97;;
12776;SDS011;6452;41.572;23.732;2022-07-04T08:10:36;8.57;;;6.18;;
12776;SDS011;6452;41.572;23.732;2022-07-04T08:13:04;6.25;;;5.75;;
12776;SDS011;6452;41.572;23.732;2022-07-04T08:15:34;8.50;;;5.90;;
12776;SDS011;6452;41.572;23.732;2022-07-04T08:18:00;6.68;;;5.78;;
12776;SDS011;6452;41.572;23.732;2022-07-04T08:20:27;4.22;;;3.92;;
12776;SDS011;6452;41.572;23.732;2022-07-04T08:22:53;3.80;;;3.00;;
12776;SDS011;6452;41.572;23.732;2022-07-04T08:25:19;3.55;;;3.30;;
12776;SDS011;6452;41.572;23.732;2022-07-04T08:27:46;4.00;;;2.75;;
12776;SDS011;6452;41.572;23.732;2022-07-04T08:30:13;4.35;;;2.80;;
12776;SDS011;6452;41.572;23.732;2022-07-04T08:32:39;3.17;;;2.90;;
12776;SDS011;6452;41.572;23.732;2022-07-04T08:35:06;2.70;;;2.50;;
12776;SDS011;6452;41.572;23.732;2022-07-04T08:37:33;2.40;;;2.30;;
12776;SDS011;6452;41.572;23.732;2022-07-04T08:39:59;3.13;;;2.67;;
12776;SDS011;6452;41.572;23.732;2022-07-04T08:42:27;2.17;;;2.17;;
12776;SDS011;6452;41.572;23.732;2022-07-04T08:44:58;5.88;;;2.85;;
12776;SDS011;6452;41.572;23.732;2022-07-04T08:47:27;2.33;;;2.22;;
12776;SDS011;6452;41.572;23.732;2022-07-04T08:49:58;2.83;;;2.55;;
12776;SDS011;6452;41.572;23.732;2022-07-04T08:52:34;3.05;;;2.75;;
12776;SDS011;6452;41.572;23.732;2022-07-04T08:55:02;3.75;;;2.47;;
12776;SDS011;6452;41.572;23.732;2022-07-04T08:57:49;3.33;;;2.58;;
12776;SDS011;6452;41.572;23.732;2022-07-04T09:00:35;2.60;;;2.40;;
12776;SDS011;6452;41.572;23.732;2022-07-04T09:03:02;2.70;;;2.50;;
12776;SDS011;6452;41.572;23.732;2022-07-04T09:05:29;2.83;;;2.63;;
12776;SDS011;6452;41.572;23.732;2022-07-04T09:07:57;3.63;;;2.42;;
12776;SDS011;6452;41.572;23.732;2022-07-04T09:10:24;5.40;;;2.50;;
12776;SDS011;6452;41.572;23.732;2022-07-04T09:12:52;3.70;;;2.70;;
12776;SDS011;6452;41.572;23.732;2022-07-04T09:15:18;4.22;;;2.65;;
12776;SDS011;6452;41.572;23.732;2022-07-04T09:17:45;3.50;;;2.72;;
12776;SDS011;6452;41.572;23.732;2022-07-04T09:20:19;3.95;;;2.50;;
12776;SDS011;6452;41.572;23.732;2022-07-04T09:22:48;2.90;;;2.60;;
12776;SDS011;6452;41.572;23.732;2022-07-04T09:25:15;4.13;;;2.40;;
12776;SDS011;6452;41.572;23.732;2022-07-04T09:27:45;3.35;;;2.35;;
12776;SDS011;6452;41.572;23.732;2022-07-04T09:30:14;2.60;;;2.30;;
12776;SDS011;6452;41.572;23.732;2022-07-04T09:32:42;2.67;;;2.38;;
12776;SDS011;6452;41.572;23.732;2022-07-04T09:35:15;2.67;;;2.15;;
12776;SDS011;6452;41.572;23.732;2022-07-04T09:37:47;3.47;;;2.10;;
12776;SDS011;6452;41.572;23.732;2022-07-04T09:40:25;2.30;;;2.20;;
12776;SDS011;6452;41.572;23.732;2022-07-04T09:43:25;2.25;;;2.15;;
12776;SDS011;6452;41.572;23.732;2022-07-04T09:48:25;2.72;;;2.40;;
12776;SDS011;6452;41.572;23.732;2022-07-04T09:50:51;4.68;;;3.45;;
12776;SDS011;6452;41.572;23.732;2022-07-04T09:53:18;3.10;;;2.90;;
12776;SDS011;6452;41.572;23.732;2022-07-04T09:55:44;3.50;;;3.30;;
12776;SDS011;6452;41.572;23.732;2022-07-04T09:58:15;3.95;;;2.80;;
12776;SDS011;6452;41.572;23.732;2022-07-04T10:00:43;3.90;;;3.03;;
12776;SDS011;6452;41.572;23.732;2022-07-04T10:08:42;4.05;;;3.03;;
12776;SDS011;6452;41.572;23.732;2022-07-04T10:11:09;2.92;;;2.75;;
12776;SDS011;6452;41.572;23.732;2022-07-04T10:13:37;4.15;;;3.10;;
12776;SDS011;6452;41.572;23.732;2022-07-04T10:16:04;3.25;;;2.97;;
12776;SDS011;6452;41.572;23.732;2022-07-04T10:18:30;3.00;;;2.80;;
12776;SDS011;6452;41.572;23.732;2022-07-04T10:20:57;2.95;;;2.83;;
12776;SDS011;6452;41.572;23.732;2022-07-04T10:23:23;3.58;;;3.20;;
12776;SDS011;6452;41.572;23.732;2022-07-04T10:25:56;3.45;;;3.15;;
12776;SDS011;6452;41.572;23.732;2022-07-04T10:28:22;3.88;;;3.15;;
12776;SDS011;6452;41.572;23.732;2022-07-04T10:30:54;16.83;;;3.90;;
12776;SDS011;6452;41.572;23.732;2022-07-04T10:33:24;4.38;;;3.17;;
12776;SDS011;6452;41.572;23.732;2022-07-04T10:35:54;4.13;;;2.70;;
12776;SDS011;6452;41.572;23.732;2022-07-04T10:38:31;3.95;;;2.95;;
12776;SDS011;6452;41.572;23.732;2022-07-04T10:41:03;3.15;;;2.95;;
12776;SDS011;6452;41.572;23.732;2022-07-04T10:46:23;3.08;;;2.83;;
12776;SDS011;6452;41.572;23.732;2022-07-04T10:51:44;2.78;;;2.58;;
12776;SDS011;6452;41.572;23.732;2022-07-04T10:59:14;2.40;;;2.30;;
12776;SDS011;6452;41.572;23.732;2022-07-04T11:01:53;4.63;;;2.42;;
12776;SDS011;6452;41.572;23.732;2022-07-04T11:08:07;2.53;;;2.42;;
12776;SDS011;6452;41.572;23.732;2022-07-04T11:20:39;2.40;;;2.30;;
12776;SDS011;6452;41.572;23.732;2022-07-04T11:23:18;2.47;;;2.30;;
12776;SDS011;6452;41.572;23.732;2022-07-04T11:25:45;2.20;;;2.10;;
12776;SDS011;6452;41.572;23.732;2022-07-04T11:30:56;2.20;;;2.00;;
12776;SDS011;6452;41.572;23.732;2022-07-04T11:33:30;2.80;;;2.60;;
12776;SDS011;6452;41.572;23.732;2022-07-04T11:38:44;2.13;;;2.00;;
12776;SDS011;6452;41.572;23.732;2022-07-04T11:41:13;3.08;;;2.50;;
12776;SDS011;6452;41.572;23.732;2022-07-04T11:43:57;2.92;;;2.40;;
12776;SDS011;6452;41.572;23.732;2022-07-04T11:46:46;3.60;;;2.33;;
12776;SDS011;6452;41.572;23.732;2022-07-04T11:49:12;7.88;;;2.38;;
12776;SDS011;6452;41.572;23.732;2022-07-04T11:51:50;3.20;;;2.38;;
12776;SDS011;6452;41.572;23.732;2022-07-04T11:54:28;4.28;;;2.63;;
12776;SDS011;6452;41.572;23.732;2022-07-04T11:57:07;2.70;;;2.25;;
12776;SDS011;6452;41.572;23.732;2022-07-04T12:00:04;6.30;;;2.58;;
12776;SDS011;6452;41.572;23.732;2022-07-04T12:02:35;4.25;;;2.13;;
12776;SDS011;6452;41.572;23.732;2022-07-04T12:05:03;2.40;;;2.22;;
12776;SDS011;6452;41.572;23.732;2022-07-04T12:07:31;5.30;;;1.95;;
12776;SDS011;6452;41.572;23.732;2022-07-04T12:10:06;2.20;;;1.83;;
12776;SDS011;6452;41.572;23.732;2022-07-04T12:12:59;3.35;;;2.20;;
12776;SDS011;6452;41.572;23.732;2022-07-04T12:18:04;3.85;;;2.30;;
12776;SDS011;6452;41.572;23.732;2022-07-04T12:20:31;2.42;;;2.15;;
12776;SDS011;6452;41.572;23.732;2022-07-04T12:22:58;2.17;;;2.08;;
12776;SDS011;6452;41.572;23.732;2022-07-04T12:25:32;2.33;;;2.20;;
12776;SDS011;6452;41.572;23.732;2022-07-04T12:28:06;2.38;;;2.17;;
12776;SDS011;6452;41.572;23.732;2022-07-04T12:33:17;8.75;;;2.70;;
12776;SDS011;6452;41.572;23.732;2022-07-04T12:35:49;3.45;;;2.20;;
12776;SDS011;6452;41.572;23.732;2022-07-04T12:38:41;2.30;;;2.03;;
12776;SDS011;6452;41.572;23.732;2022-07-04T12:41:08;2.92;;;2.72;;
12776;SDS011;6452;41.572;23.732;2022-07-04T12:46:11;2.22;;;2.13;;
12776;SDS011;6452;41.572;23.732;2022-07-04T12:48:49;2.60;;;2.40;;
12776;SDS011;6452;41.572;23.732;2022-07-04T12:53:48;2.13;;;2.00;;
12776;SDS011;6452;41.572;23.732;2022-07-04T12:59:00;5.60;;;2.30;;
12776;SDS011;6452;41.572;23.732;2022-07-04T13:01:45;2.83;;;2.63;;
12776;SDS011;6452;41.572;23.732;2022-07-04T13:04:12;3.58;;;2.30;;
12776;SDS011;6452;41.572;23.732;2022-07-04T13:06:39;4.38;;;2.10;;
12776;SDS011;6452;41.572;23.732;2022-07-04T13:09:06;2.53;;;2.40;;
12776;SDS011;6452;41.572;23.732;2022-07-04T13:11:33;4.50;;;2.22;;
12776;SDS011;6452;41.572;23.732;2022-07-04T13:14:18;2.53;;;2.33;;
12776;SDS011;6452;41.572;23.732;2022-07-04T13:16:45;5.10;;;2.20;;
12776;SDS011;6452;41.572;23.732;2022-07-04T13:19:10;2.08;;;1.98;;
12776;SDS011;6452;41.572;23.732;2022-07-04T13:21:36;2.70;;;2.30;;
12776;SDS011;6452;41.572;23.732;2022-07-04T13:24:03;2.55;;;2.00;;
12776;SDS011;6452;41.572;23.732;2022-07-04T13:26:29;4.38;;;2.03;;
12776;SDS011;6452;41.572;23.732;2022-07-04T13:28:57;2.38;;;2.28;;
12776;SDS011;6452;41.572;23.732;2022-07-04T13:31:24;1.90;;;1.90;;
12776;SDS011;6452;41.572;23.732;2022-07-04T13:33:50;2.20;;;2.10;;
12776;SDS011;6452;41.572;23.732;2022-07-04T13:36:18;2.20;;;2.00;;
12776;SDS011;6452;41.572;23.732;2022-07-04T13:38:45;3.40;;;2.00;;
12776;SDS011;6452;41.572;23.732;2022-07-04T13:41:12;3.92;;;2.10;;
12776;SDS011;6452;41.572;23.732;2022-07-04T13:43:39;3.90;;;2.20;;
12776;SDS011;6452;41.572;23.732;2022-07-04T13:46:06;3.92;;;2.00;;
12776;SDS011;6452;41.572;23.732;2022-07-04T13:48:32;3.58;;;2.00;;
12776;SDS011;6452;41.572;23.732;2022-07-04T13:50:59;4.07;;;2.17;;
12776;SDS011;6452;41.572;23.732;2022-07-04T13:53:26;2.67;;;2.00;;
12776;SDS011;6452;41.572;23.732;2022-07-04T13:55:56;2.22;;;2.10;;
12776;SDS011;6452;41.572;23.732;2022-07-04T13:58:22;2.47;;;2.33;;
12776;SDS011;6452;41.572;23.732;2022-07-04T14:00:49;3.13;;;2.38;;
12776;SDS011;6452;41.572;23.732;2022-07-04T14:03:16;2.25;;;2.15;;
12776;SDS011;6452;41.572;23.732;2022-07-04T14:05:43;5.78;;;2.10;;
12776;SDS011;6452;41.572;23.732;2022-07-04T14:08:09;8.98;;;2.65;;
12776;SDS011;6452;41.572;23.732;2022-07-04T14:10:39;2.63;;;2.20;;
12776;SDS011;6452;41.572;23.732;2022-07-04T14:13:10;2.42;;;2.22;;
12776;SDS011;6452;41.572;23.732;2022-07-04T14:15:37;2.33;;;2.20;;
12776;SDS011;6452;41.572;23.732;2022-07-04T14:18:05;2.42;;;2.25;;
12776;SDS011;6452;41.572;23.732;2022-07-04T14:20:41;2.30;;;2.20;;
12776;SDS011;6452;41.572;23.732;2022-07-04T14:23:08;3.75;;;2.50;;
12776;SDS011;6452;41.572;23.732;2022-07-04T14:25:35;2.55;;;1.85;;
12776;SDS011;6452;41.572;23.732;2022-07-04T14:28:02;1.95;;;1.92;;
12776;SDS011;6452;41.572;23.732;2022-07-04T14:30:30;6.15;;;2.33;;
12776;SDS011;6452;41.572;23.732;2022-07-04T14:32:56;2.08;;;1.83;;
12776;SDS011;6452;41.572;23.732;2022-07-04T14:35:27;2.17;;;2.08;;
12776;SDS011;6452;41.572;23.732;2022-07-04T14:37:54;4.75;;;2.10;;
12776;SDS011;6452;41.572;23.732;2022-07-04T14:40:22;2.13;;;1.92;;
12776;SDS011;6452;41.572;23.732;2022-07-04T14:42:48;1.70;;;1.60;;
12776;SDS011;6452;41.572;23.732;2022-07-04T14:45:15;2.42;;;1.80;;
12776;SDS011;6452;41.572;23.732;2022-07-04T14:47:41;3.22;;;1.63;;
12776;SDS011;6452;41.572;23.732;2022-07-04T14:50:08;2.72;;;1.63;;
12776;SDS011;6452;41.572;23.732;2022-07-04T14:52:34;2.22;;;1.80;;
12776;SDS011;6452;41.572;23.732;2022-07-04T14:55:01;1.63;;;1.55;;
12776;SDS011;6452;41.572;23.732;2022-07-04T14:57:29;2.50;;;1.70;;
12776;SDS011;6452;41.572;23.732;2022-07-04T14:59:55;4.00;;;1.70;;
12776;SDS011;6452;41.572;23.732;2022-07-04T15:02:22;3.17;;;1.90;;
12776;SDS011;6452;41.572;23.732;2022-07-04T15:04:49;3.40;;;1.67;;
12776;SDS011;6452;41.572;23.732;2022-07-04T15:07:16;1.75;;;1.58;;
12776;SDS011;6452;41.572;23.732;2022-07-04T15:09:43;6.75;;;2.00;;
12776;SDS011;6452;41.572;23.732;2022-07-04T15:12:09;2.00;;;1.85;;
12776;SDS011;6452;41.572;23.732;2022-07-04T15:14:35;2.45;;;1.88;;
12776;SDS011;6452;41.572;23.732;2022-07-04T15:17:02;2.78;;;1.73;;
12776;SDS011;6452;41.572;23.732;2022-07-04T15:19:29;1.50;;;1.50;;
12776;SDS011;6452;41.572;23.732;2022-07-04T15:21:56;1.65;;;1.50;;
12776;SDS011;6452;41.572;23.732;2022-07-04T15:24:41;1.85;;;1.70;;
12776;SDS011;6452;41.572;23.732;2022-07-04T15:27:08;1.70;;;1.60;;
12776;SDS011;6452;41.572;23.732;2022-07-04T15:29:34;2.80;;;1.77;;
12776;SDS011;6452;41.572;23.732;2022-07-04T15:32:01;3.00;;;1.60;;
12776;SDS011;6452;41.572;23.732;2022-07-04T15:34:29;2.42;;;1.60;;
12776;SDS011;6452;41.572;23.732;2022-07-04T15:36:56;2.97;;;1.85;;
12776;SDS011;6452;41.572;23.732;2022-07-04T15:39:24;3.30;;;1.83;;
12776;SDS011;6452;41.572;23.732;2022-07-04T15:41:51;2.65;;;1.50;;
12776;SDS011;6452;41.572;23.732;2022-07-04T15:44:18;2.05;;;1.65;;